createdAt,value
2023-04-23T00:07:30.613Z,12.86
2023-04-23T00:10:19.996Z,13.05
2023-04-23T00:12:50.370Z,12.90
2023-04-23T00:15:25.768Z,13.09
2023-04-23T00:17:53.345Z,12.74
2023-04-23T00:20:24.781Z,12.78
2023-04-23T00:22:56.596Z,13.10
2023-04-23T00:25:24.232Z,12.79
2023-04-23T00:27:53.953Z,13.15
2023-04-23T00:30:26.099Z,12.82
2023-04-23T00:32:58.430Z,13.16
2023-04-23T00:35:39.768Z,13.02
2023-04-23T00:38:08.240Z,13.05
2023-04-23T00:40:37.281Z,12.97
2023-04-23T00:43:10.898Z,12.86
2023-04-23T00:45:38.747Z,12.76
2023-04-23T00:48:10.400Z,12.67
2023-04-23T00:50:42.412Z,12.60
2023-04-23T00:53:09.666Z,12.28
2023-04-23T00:55:43.623Z,12.52
2023-04-23T00:58:11.503Z,12.49
2023-04-23T01:00:47.418Z,12.56
2023-04-23T01:03:20.795Z,12.61
2023-04-23T01:05:52.405Z,12.60
2023-04-23T01:08:37.639Z,12.51
2023-04-23T01:11:08.744Z,12.61
2023-04-23T01:13:37.043Z,12.58
2023-04-23T01:16:06.322Z,12.42
2023-04-23T01:18:41.726Z,12.60
2023-04-23T01:21:12.906Z,12.64
2023-04-23T01:23:47.611Z,12.65
2023-04-23T01:26:18.950Z,12.66
2023-04-23T01:31:36.477Z,12.46
2023-04-23T01:39:31.143Z,12.36
2023-04-23T01:42:03.979Z,12.45
2023-04-23T01:44:31.419Z,12.53
2023-04-23T01:46:58.546Z,12.45
2023-04-23T01:49:25.685Z,12.01
2023-04-23T01:51:54.419Z,12.26
2023-04-23T01:54:21.633Z,12.37
2023-04-23T01:56:48.290Z,12.25
2023-04-23T01:59:19.304Z,12.28
2023-04-23T02:01:47.485Z,12.28
2023-04-23T02:04:16.467Z,12.24
2023-04-23T02:06:50.290Z,12.06
2023-04-23T02:09:17.196Z,11.78
2023-04-23T02:11:52.191Z,12.09
2023-04-23T02:14:19.685Z,11.90
2023-04-23T02:16:48.194Z,11.92
2023-04-23T02:19:21.989Z,12.00
2023-04-23T02:21:52.100Z,11.91
2023-04-23T02:24:20.772Z,12.02
2023-04-23T02:26:49.399Z,12.05
2023-04-23T02:29:19.794Z,11.88
2023-04-23T02:31:46.822Z,12.10
2023-04-23T02:34:14.046Z,11.93
2023-04-23T02:36:42.233Z,11.96
2023-04-23T02:39:09.265Z,11.91
2023-04-23T02:41:36.357Z,12.11
2023-04-23T02:44:12.232Z,12.00
2023-04-23T02:46:41.483Z,12.06
2023-04-23T02:49:09.554Z,12.09
2023-04-23T02:51:37.849Z,12.11
2023-04-23T02:54:05.914Z,12.11
2023-04-23T02:56:32.909Z,11.93
2023-04-23T02:59:02.910Z,11.89
2023-04-23T03:01:30.148Z,12.01
2023-04-23T03:03:57.164Z,11.98
2023-04-23T03:06:25.004Z,12.01
2023-04-23T03:08:53.085Z,11.85
2023-04-23T03:11:19.940Z,11.90
2023-04-23T03:13:47.426Z,11.84
2023-04-23T03:16:14.754Z,11.90
2023-04-23T03:18:45.697Z,11.92
2023-04-23T03:21:13.452Z,11.69
2023-04-23T03:23:41.676Z,11.90
2023-04-23T03:26:08.476Z,11.90
2023-04-23T03:28:35.464Z,12.03
2023-04-23T03:31:03.960Z,11.99
2023-04-23T03:33:32.163Z,12.03
2023-04-23T03:36:01.116Z,12.01
2023-04-23T03:38:32.393Z,11.61
2023-04-23T03:41:00.771Z,11.86
2023-04-23T03:43:28.034Z,11.90
2023-04-23T03:45:56.169Z,12.03
2023-04-23T03:48:22.856Z,12.00
2023-04-23T03:50:49.851Z,11.82
2023-04-23T03:53:17.963Z,11.99
2023-04-23T03:55:44.932Z,11.67
2023-04-23T03:58:11.849Z,11.57
2023-04-23T04:00:38.496Z,11.93
2023-04-23T04:03:05.733Z,11.92
2023-04-23T04:05:32.642Z,11.88
2023-04-23T04:08:02.833Z,11.88
2023-04-23T04:10:29.777Z,11.66
2023-04-23T04:12:57.233Z,11.79
2023-04-23T04:15:26.534Z,11.71
2023-04-23T04:17:53.309Z,11.80
2023-04-23T04:20:23.705Z,11.65
2023-04-23T04:22:50.732Z,11.74
2023-04-23T04:25:17.719Z,11.78
2023-04-23T04:27:44.640Z,11.76
2023-04-23T04:30:12.211Z,11.69
2023-04-23T04:32:40.489Z,11.24
2023-04-23T04:35:10.092Z,11.64
2023-04-23T04:37:37.020Z,11.52
2023-04-23T04:40:05.193Z,11.51
2023-04-23T04:42:31.975Z,11.56
2023-04-23T04:44:59.585Z,11.45
2023-04-23T04:47:26.577Z,11.55
2023-04-23T04:49:57.975Z,11.34
2023-04-23T04:52:25.705Z,11.54
2023-04-23T04:54:55.460Z,11.58
2023-04-23T04:57:22.980Z,11.65
2023-04-23T04:59:52.775Z,11.64
2023-04-23T05:02:24.707Z,11.59
2023-04-23T05:04:54.177Z,11.52
2023-04-23T05:07:20.974Z,11.67
2023-04-23T05:09:50.101Z,11.63
2023-04-23T05:12:16.932Z,11.83
2023-04-23T05:14:43.810Z,11.81
2023-04-23T05:17:12.087Z,11.90
2023-04-23T05:19:38.830Z,11.88
2023-04-23T05:22:06.800Z,11.80
2023-04-23T05:24:33.544Z,11.91
2023-04-23T05:27:05.524Z,11.93
2023-04-23T05:29:32.231Z,11.87
2023-04-23T05:32:00.294Z,11.73
2023-04-23T05:34:27.953Z,11.36
2023-04-23T05:36:54.811Z,11.88
2023-04-23T05:39:24.441Z,11.82
2023-04-23T05:41:51.314Z,12.01
2023-04-23T05:44:19.673Z,12.14
2023-04-23T05:46:46.493Z,11.94
2023-04-23T05:49:15.192Z,12.06
2023-04-23T05:51:41.841Z,11.97
2023-04-23T05:54:08.709Z,12.09
2023-04-23T05:56:36.465Z,12.18
2023-04-23T05:59:03.278Z,12.41
2023-04-23T06:01:33.172Z,12.26
2023-04-23T06:04:06.059Z,12.32
2023-04-23T06:06:57.297Z,12.70
2023-04-23T06:09:25.859Z,12.70
2023-04-23T06:11:53.865Z,13.11
2023-04-23T06:14:22.046Z,13.29
2023-04-23T06:16:52.888Z,13.42
2023-04-23T06:19:20.669Z,13.32
2023-04-23T06:21:57.720Z,13.27
2023-04-23T06:24:24.778Z,12.86
2023-04-23T06:26:59.882Z,12.84
2023-04-23T06:35:15.850Z,13.09
2023-04-23T06:37:42.846Z,12.86
2023-04-23T06:43:09.968Z,12.53
2023-04-23T06:45:37.770Z,12.45
2023-04-23T06:51:02.678Z,12.78
2023-04-23T06:56:29.087Z,12.77
2023-04-23T07:30:54.210Z,13.97
2023-04-23T08:05:57.033Z,14.54
2023-04-23T08:08:31.000Z,14.43
2023-04-23T08:28:27.353Z,13.12
2023-04-23T08:36:30.865Z,13.51
2023-04-23T08:42:18.953Z,14.83
2023-04-23T08:50:32.215Z,15.19
2023-04-23T08:55:42.847Z,14.92
2023-04-23T09:07:32.687Z,15.20
2023-04-23T09:12:57.891Z,15.72
2023-04-23T09:21:11.527Z,16.60
2023-04-23T09:32:27.865Z,17.94
2023-04-23T09:41:28.962Z,18.53
2023-04-23T09:53:00.435Z,17.14
2023-04-23T10:02:05.297Z,17.69
2023-04-23T10:10:14.036Z,16.72
2023-04-23T10:16:42.032Z,17.46
2023-04-23T10:40:12.160Z,17.27
2023-04-23T10:42:47.785Z,16.79
2023-04-23T11:11:23.027Z,18.53
2023-04-23T12:17:27.878Z,17.58
2023-04-23T12:21:01.293Z,17.19
2023-04-23T12:26:41.947Z,17.17
2023-04-23T12:29:24.619Z,17.20
2023-04-23T12:31:54.848Z,17.36
2023-04-23T12:34:23.495Z,17.20
2023-04-23T12:36:57.923Z,17.26
2023-04-23T12:42:19.115Z,17.68
2023-04-23T12:44:53.564Z,17.53
2023-04-23T12:47:22.051Z,17.61
2023-04-23T12:53:20.796Z,18.15
2023-04-23T13:01:46.334Z,17.85
2023-04-23T13:04:38.768Z,18.23
2023-04-23T13:07:27.457Z,18.78
2023-04-23T13:15:49.181Z,17.75
2023-04-23T13:18:23.302Z,18.10
2023-04-23T13:23:41.965Z,18.10
2023-04-23T13:26:41.785Z,18.42
2023-04-23T13:29:13.487Z,18.65
2023-04-23T13:34:51.789Z,19.12
2023-04-23T13:37:28.359Z,19.63
2023-04-23T13:43:12.138Z,19.87
2023-04-23T13:54:02.867Z,21.08
2023-04-23T13:56:43.207Z,21.02
2023-04-23T13:59:20.233Z,20.83
2023-04-23T14:02:09.904Z,20.58
2023-04-23T14:04:47.347Z,20.09
2023-04-23T14:07:19.878Z,20.12
2023-04-23T14:09:56.299Z,20.15
2023-04-23T14:12:29.810Z,20.36
2023-04-23T14:15:11.847Z,20.66
2023-04-23T14:24:24.240Z,20.40
2023-04-23T14:27:08.726Z,20.58
2023-04-23T14:30:12.894Z,20.91
2023-04-23T14:32:43.907Z,20.55
2023-04-23T14:35:17.879Z,21.02
2023-04-23T14:37:48.074Z,20.45
2023-04-23T14:43:36.203Z,20.53
2023-04-23T14:46:12.724Z,20.52
2023-04-23T14:54:09.773Z,20.66
2023-04-23T14:56:38.171Z,20.97
2023-04-23T14:59:33.762Z,20.96
2023-04-23T15:02:15.181Z,20.82
2023-04-23T15:07:48.237Z,20.63
2023-04-23T15:10:23.214Z,20.64
2023-04-23T15:13:18.715Z,20.33
2023-04-23T15:16:06.566Z,20.23
2023-04-23T15:18:43.232Z,20.63
2023-04-23T15:21:20.527Z,19.78
2023-04-23T15:24:03.133Z,19.98
2023-04-23T15:26:40.941Z,19.18
2023-04-23T15:29:23.126Z,19.42
2023-04-23T15:32:17.381Z,19.25
2023-04-23T15:37:38.824Z,19.89
2023-04-23T15:43:21.645Z,19.78
2023-04-23T15:48:48.659Z,19.74
2023-04-23T15:51:22.086Z,19.26
2023-04-23T15:54:09.194Z,19.77
2023-04-23T15:56:56.415Z,19.47
2023-04-23T15:59:34.109Z,19.77
2023-04-23T16:02:22.652Z,19.89
2023-04-23T16:10:37.864Z,19.37
2023-04-23T16:13:50.247Z,19.08
2023-04-23T16:22:54.703Z,18.87
2023-04-23T16:28:44.567Z,18.42
2023-04-23T16:53:00.161Z,14.57
2023-04-23T17:01:09.746Z,14.28
2023-04-23T17:28:29.324Z,13.28
2023-04-23T17:34:44.063Z,13.19
2023-04-23T17:48:56.166Z,12.57
2023-04-23T17:57:23.736Z,12.40
2023-04-23T18:00:16.447Z,12.70
2023-04-23T18:02:55.514Z,13.03
2023-04-23T18:08:47.933Z,13.15
2023-04-23T18:11:33.253Z,13.23
2023-04-23T20:06:39.080Z,12.41
2023-04-23T20:12:36.191Z,12.39
2023-04-23T20:26:54.789Z,12.34
2023-04-23T20:29:23.005Z,12.40
2023-04-23T20:31:53.214Z,11.98
2023-04-23T20:34:22.466Z,12.35
2023-04-23T20:37:06.286Z,12.44
2023-04-23T20:45:01.892Z,12.27
2023-04-23T20:47:29.185Z,12.18
2023-04-23T20:50:06.018Z,12.28
2023-04-23T20:52:38.294Z,11.82
2023-04-23T20:55:13.857Z,12.22
2023-04-23T20:57:41.441Z,11.99
2023-04-23T21:00:25.015Z,12.12
2023-04-23T21:02:56.038Z,12.44
2023-04-23T21:10:50.114Z,12.34
2023-04-23T21:16:06.187Z,12.35
2023-04-23T21:18:39.953Z,12.39
2023-04-23T21:21:18.511Z,12.01
2023-04-23T21:23:49.950Z,12.20
2023-04-23T21:26:29.834Z,11.94
2023-04-23T21:29:05.678Z,12.10
2023-04-23T21:31:59.837Z,11.96
2023-04-23T21:34:28.617Z,11.96
2023-04-23T21:37:00.487Z,11.89
2023-04-23T21:39:27.520Z,12.34
2023-04-23T21:41:59.696Z,12.20
2023-04-23T21:44:33.334Z,12.12
2023-04-23T21:47:06.249Z,12.04
2023-04-23T21:49:34.925Z,12.16
2023-04-23T21:52:11.451Z,11.89
2023-04-23T21:54:39.528Z,12.28
2023-04-23T21:59:51.438Z,12.52
2023-04-23T22:02:23.763Z,12.20
2023-04-23T22:05:06.135Z,12.55
2023-04-23T22:07:43.471Z,12.49
2023-04-23T22:10:41.197Z,12.42
2023-04-23T22:16:53.208Z,12.11
2023-04-23T22:19:22.802Z,12.45
2023-04-23T22:21:53.990Z,12.14
2023-04-23T22:24:23.438Z,12.33
2023-04-23T22:26:50.041Z,12.28
2023-04-23T22:29:17.400Z,12.02
2023-04-23T22:31:46.391Z,12.23
2023-04-23T22:34:14.930Z,12.05
2023-04-23T22:36:43.878Z,12.19
2023-04-23T22:39:14.790Z,11.91
2023-04-23T22:41:43.069Z,11.98
2023-04-23T22:44:10.246Z,11.76
2023-04-23T22:46:38.409Z,12.02
2023-04-23T22:49:10.474Z,11.59
2023-04-23T22:51:44.721Z,11.90
2023-04-23T22:59:35.698Z,11.93
2023-04-23T23:02:12.698Z,11.41
2023-04-23T23:04:46.447Z,11.68
2023-04-23T23:07:36.912Z,12.03
2023-04-23T23:10:06.677Z,12.04
2023-04-23T23:12:38.070Z,11.92
2023-04-23T23:15:10.612Z,11.90
2023-04-23T23:17:37.570Z,11.72
2023-04-23T23:20:11.627Z,11.72
2023-04-23T23:22:40.434Z,11.55
2023-04-23T23:25:21.335Z,11.14
2023-04-23T23:27:48.460Z,11.20
2023-04-23T23:30:16.126Z,11.41
2023-04-23T23:32:43.266Z,11.30
2023-04-23T23:35:10.334Z,11.51
2023-04-23T23:37:37.975Z,11.47
2023-04-23T23:40:09.558Z,11.18
2023-04-23T23:42:37.934Z,11.44
2023-04-23T23:45:07.914Z,11.13
2023-04-23T23:47:36.944Z,11.31
2023-04-23T23:50:13.489Z,11.30
2023-04-23T23:52:41.988Z,11.37
2023-04-23T23:57:51.840Z,11.44
